Yuma, AZ

8:39 AM MST on September 22, 2014 (GMT -0700)
Yuma Marine Corps Air Station | Change Station
CLOSE
Current Station
Airport
Location: Yuma MCAS,
Elevation: 213 ft
Nearby Weather Stations

Elev 213 ft 32.66 °N, 114.61 °W | Updated 42 minutes ago

Clear
Clear
81 °F
Feels Like 80 °F
N
6
Wind Variable Wind from NNE

Today
High -- | Low -- °F
--% Chance of Precip.
Yesterday
High -- | Low -- °F
Precip. -- in
6:26 AM 6:35 PM
Waning Crescent, 2% visible
Pressure 29.90 in
Visibility 10.0 miles
Clouds Few 20000 ft
Heat Index 80 °F
Dew Point 53 °F
Humidity 38%
Rainfall 0.00 in
Snow Depth 0 in , 0 in , 0 in
UV 1 out of 12
Pollen 8.60 out of 12
Air Quality Not available.
Flu Activity Not available.
METAR KNYL 221457Z 03005KT 10SM FEW200 27/12 A2990 RMK AO2 SLP123 T02720117 53014

More Conditions Fewer Conditions

Pressure 29.90 in
Visibility 10.0 miles
Clouds Few 20000 ft
Heat Index 80 °F
Dew Point 53 °F
Humidity 38%
Rainfall 0.00 in
Snow Depth 0 in , 0 in , 0 in
UV 1 out of 12
Pollen 8.60 out of 12
Air Quality Not available.
Flu Activity Not available.
METAR KNYL 221457Z 03005KT 10SM FEW200 27/12 A2990 RMK AO2 SLP123 T02720117 53014

More Conditions Fewer Conditions

10-Day Weather Forecast

Almanac

Astronomy

Sep. 22, 2014 Rise Set
Actual Time 6:26 AM MST 6:35 PM MST
Civil Twilight 6:02 AM MST 6:59 PM MST
Nautical Twilight 5:33 AM MST 7:28 PM MST
Astronomical Twilight 5:04 AM MST 7:57 PM MST
Moon 5:02 AM MST 5:43 PM MST
Length of Visible Light 12h 57m
Length of Day
12h 08m
Tomorrow will be 1m 59s shorter.
Waning Crescent, 2% of the Moon is Illuminated
Today
Waning Crescent
Sep 24
New
Oct 1
First Quarter
Oct 8
Full
Oct 15
Last Quarter

Today's Extremes

State Highs State Lows

Community

WunderPhotos

Upload Photos

1,755,464 photos uploaded!

Nearby

Snow Depth

Station Depth Elevation
Maverick Fork 0 in 9200 ft
Promontory 0 in 7930 ft
Wildcat 0 in 7850 ft
Workman Creek 1 in 6900 ft
White Horse Lake 0 in 7180 ft

Earthquake Activity

City Distance Mag. Time & Date
Borrego Springs, California 108 miles 2.6 7:34 AM MST
2014-09-21
Minimum magnitude displayed is 2.5.

Coastal Water Temperatures

Place Temperature
No Stations Reporting

Nearby Weather Stations